createdAt,value
2019-02-06T00:01:39.301Z,34.70
2019-02-06T00:03:46.655Z,31.07
2019-02-06T00:05:53.853Z,31.97
2019-02-06T00:08:01.196Z,29.97
2019-02-06T00:10:08.707Z,31.47
2019-02-06T00:12:16.104Z,30.57
2019-02-06T00:14:23.554Z,29.03
2019-02-06T00:16:30.704Z,28.43
2019-02-06T00:18:38.118Z,28.00
2019-02-06T00:20:45.618Z,30.27
2019-02-06T00:22:53.037Z,30.63
2019-02-06T00:25:00.444Z,29.67
2019-02-06T00:27:07.973Z,30.37
2019-02-06T00:29:15.361Z,29.03
2019-02-06T00:31:22.527Z,31.43
2019-02-06T00:33:29.960Z,29.37
2019-02-06T00:35:37.306Z,29.10
2019-02-06T00:37:44.753Z,30.20
2019-02-06T00:39:52.160Z,31.00
2019-02-06T00:42:01.311Z,29.90
2019-02-06T00:44:08.814Z,31.10
2019-02-06T00:46:16.281Z,30.00
2019-02-06T00:48:23.787Z,29.00
2019-02-06T00:50:31.303Z,29.07
2019-02-06T00:52:38.708Z,28.90
2019-02-06T00:54:46.049Z,28.70
2019-02-06T00:56:53.630Z,29.80
2019-02-06T00:59:01.129Z,31.43
2019-02-06T01:01:09.035Z,30.33
2019-02-06T01:03:16.630Z,29.37
2019-02-06T01:05:24.189Z,29.07
2019-02-06T01:07:31.590Z,28.60
2019-02-06T01:09:39.045Z,28.93
2019-02-06T01:11:46.426Z,29.67
2019-02-06T01:13:53.887Z,30.07
2019-02-06T01:16:01.283Z,29.23
2019-02-06T01:18:08.705Z,29.50
2019-02-06T01:20:17.117Z,30.97
2019-02-06T01:22:24.509Z,28.33
2019-02-06T01:24:32.219Z,28.37
2019-02-06T01:26:39.781Z,28.43
2019-02-06T01:28:47.051Z,30.40
2019-02-06T01:31:04.062Z,32.53
2019-02-06T01:33:11.477Z,30.97
2019-02-06T01:35:18.849Z,28.73
2019-02-06T01:37:26.227Z,31.10
2019-02-06T01:39:33.864Z,28.57
2019-02-06T01:41:41.238Z,29.23
2019-02-06T01:43:48.627Z,27.40
2019-02-06T01:45:56.023Z,29.07
2019-02-06T01:48:03.383Z,28.83
2019-02-06T01:50:12.430Z,28.93
2019-02-06T01:52:19.441Z,28.07
2019-02-06T01:54:26.473Z,28.57
2019-02-06T01:56:33.535Z,28.57
2019-02-06T01:58:40.734Z,26.57
2019-02-06T02:00:47.980Z,27.93
2019-02-06T02:02:55.316Z,27.60
2019-02-06T02:05:02.728Z,27.20
2019-02-06T02:07:10.555Z,27.37
2019-02-06T02:09:21.297Z,29.47
2019-02-06T02:11:28.660Z,28.33
2019-02-06T02:13:36.231Z,29.03
2019-02-06T02:15:43.718Z,28.43
2019-02-06T02:17:51.088Z,27.47
2019-02-06T02:19:58.434Z,27.57
2019-02-06T02:22:06.078Z,26.67
2019-02-06T02:24:13.338Z,27.27
2019-02-06T02:26:20.774Z,26.90
2019-02-06T02:28:28.095Z,28.33
2019-02-06T02:30:43.338Z,27.60
2019-02-06T02:32:50.338Z,27.30
2019-02-06T02:34:57.392Z,27.07
2019-02-06T02:37:04.797Z,26.83
2019-02-06T02:39:11.850Z,27.87
2019-02-06T02:41:18.887Z,27.03
2019-02-06T02:43:25.887Z,26.10
2019-02-06T02:45:33.207Z,25.97
2019-02-06T02:47:40.301Z,27.27
2019-02-06T02:49:47.663Z,26.30
2019-02-06T02:51:54.916Z,27.80
2019-02-06T02:54:02.164Z,26.60
2019-02-06T02:56:09.369Z,27.60
2019-02-06T02:58:16.788Z,27.40
2019-02-06T03:00:30.899Z,26.10
2019-02-06T03:02:47.540Z,26.87
2019-02-06T03:05:05.219Z,25.93
2019-02-06T03:07:12.508Z,26.30
2019-02-06T03:09:19.833Z,26.97
2019-02-06T03:11:27.147Z,26.37
2019-02-06T03:13:34.801Z,27.13
2019-02-06T03:15:42.080Z,27.20
2019-02-06T03:17:49.481Z,27.40
2019-02-06T03:19:56.920Z,26.40
2019-02-06T03:22:04.267Z,25.37
2019-02-06T03:24:12.053Z,27.13
2019-02-06T03:26:19.429Z,26.70
2019-02-06T03:28:26.838Z,27.07
2019-02-06T03:30:34.232Z,26.37
2019-02-06T03:32:41.782Z,25.70
2019-02-06T03:34:49.060Z,25.10
2019-02-06T03:36:56.417Z,24.73
2019-02-06T03:39:05.313Z,26.13
2019-02-06T03:41:12.677Z,26.03
2019-02-06T03:43:19.911Z,25.47
2019-02-06T03:45:27.144Z,25.23
2019-02-06T03:47:34.554Z,24.27
2019-02-06T03:49:42.769Z,23.30
2019-02-06T03:51:50.175Z,26.43
2019-02-06T03:53:57.707Z,25.10
2019-02-06T03:56:05.182Z,25.27
2019-02-06T03:58:12.697Z,24.73
2019-02-06T04:00:20.133Z,24.57
2019-02-06T04:02:27.585Z,25.10
2019-02-06T04:04:35.018Z,23.60
2019-02-06T04:06:53.675Z,23.57
2019-02-06T04:08:51.110Z,24.33
2019-02-06T04:10:58.677Z,25.10
2019-02-06T04:13:05.991Z,23.63
2019-02-06T04:15:13.081Z,24.93
2019-02-06T04:17:20.108Z,22.77
2019-02-06T04:19:27.819Z,25.77
2019-02-06T04:21:35.194Z,22.57
2019-02-06T04:23:42.592Z,23.50
2019-02-06T04:25:50.107Z,23.03
2019-02-06T04:27:57.535Z,23.80
2019-02-06T04:30:05.097Z,24.20
2019-02-06T04:32:12.508Z,23.83
2019-02-06T04:34:19.848Z,24.47
2019-02-06T04:36:27.228Z,25.83
2019-02-06T04:38:34.651Z,26.17
2019-02-06T04:40:42.053Z,24.17
2019-02-06T04:42:49.222Z,22.83
2019-02-06T04:44:56.618Z,25.17
2019-02-06T04:47:04.368Z,23.47
2019-02-06T04:49:11.868Z,22.47
2019-02-06T04:51:19.325Z,23.03
2019-02-06T04:53:26.700Z,21.80
2019-02-06T04:55:34.052Z,22.07
2019-02-06T04:57:41.512Z,21.40
2019-02-06T04:59:48.918Z,23.13
2019-02-06T05:01:56.388Z,22.70
2019-02-06T05:04:03.842Z,24.23
2019-02-06T05:06:11.157Z,22.67
2019-02-06T05:08:18.634Z,22.90
2019-02-06T05:10:25.867Z,24.20
2019-02-06T05:12:33.334Z,24.10
2019-02-06T05:14:41.052Z,29.27
2019-02-06T05:16:48.488Z,28.27
2019-02-06T05:18:55.682Z,24.37
2019-02-06T05:21:03.173Z,30.63
2019-02-06T05:23:10.928Z,30.30
2019-02-06T05:25:18.351Z,27.53
2019-02-06T05:27:26.026Z,27.87
2019-02-06T05:29:34.434Z,26.60
2019-02-06T05:31:41.925Z,26.33
2019-02-06T05:33:49.286Z,32.97
2019-02-06T05:35:56.690Z,25.70
2019-02-06T05:38:04.099Z,25.67
2019-02-06T05:40:11.365Z,21.53
2019-02-06T05:42:18.918Z,24.70
2019-02-06T05:44:26.402Z,24.93
2019-02-06T05:46:33.762Z,23.60
2019-02-06T05:48:44.349Z,26.67
2019-02-06T05:50:51.678Z,26.13
2019-02-06T05:52:59.008Z,21.37
2019-02-06T05:55:07.200Z,25.73
2019-02-06T05:57:14.432Z,28.90
2019-02-06T05:59:21.735Z,23.30
2019-02-06T06:01:29.061Z,28.03
2019-02-06T06:03:36.574Z,32.70
2019-02-06T06:05:44.073Z,26.70
2019-02-06T06:07:51.532Z,29.80
2019-02-06T06:09:59.115Z,21.57
2019-02-06T06:12:06.595Z,28.03
2019-02-06T06:14:13.945Z,24.93
2019-02-06T06:16:21.474Z,23.97
2019-02-06T06:18:28.789Z,33.20
2019-02-06T06:20:36.256Z,33.33
2019-02-06T06:22:43.654Z,30.47
2019-02-06T06:24:51.138Z,27.90
2019-02-06T06:26:58.525Z,27.30
2019-02-06T06:29:05.987Z,25.57
2019-02-06T06:31:13.334Z,31.77
2019-02-06T06:33:20.719Z,24.30
2019-02-06T06:35:28.841Z,32.00
2019-02-06T06:37:36.190Z,31.70
2019-02-06T06:39:43.664Z,33.53
2019-02-06T06:41:51.058Z,27.07
2019-02-06T06:43:58.483Z,29.93
2019-02-06T06:46:05.947Z,23.20
2019-02-06T06:48:13.302Z,26.93
2019-02-06T06:50:22.919Z,27.83
2019-02-06T06:52:30.041Z,23.93
2019-02-06T06:54:37.461Z,21.63
2019-02-06T06:56:44.779Z,26.30
2019-02-06T06:58:52.131Z,21.50
2019-02-06T07:00:59.583Z,20.90
2019-02-06T07:03:07.133Z,27.07
2019-02-06T07:05:14.562Z,27.43
2019-02-06T07:07:22.012Z,23.47
2019-02-06T07:09:29.362Z,23.23
2019-02-06T07:11:36.834Z,22.77
2019-02-06T07:13:44.288Z,33.63
2019-02-06T07:15:51.623Z,27.57
2019-02-06T07:17:59.148Z,28.17
2019-02-06T07:20:07.453Z,31.33
2019-02-06T07:22:14.815Z,30.33
2019-02-06T07:24:22.253Z,34.10
2019-02-06T07:26:29.715Z,37.53
2019-02-06T07:28:37.048Z,34.43
2019-02-06T07:30:56.238Z,43.67
2019-02-06T07:33:06.737Z,34.47
2019-02-06T07:35:13.960Z,38.87
2019-02-06T07:37:21.280Z,46.30
2019-02-06T07:39:28.676Z,38.70
2019-02-06T07:41:35.856Z,38.40
2019-02-06T07:43:43.705Z,37.40
2019-02-06T07:45:51.245Z,24.33
2019-02-06T07:47:58.827Z,31.17
2019-02-06T07:50:07.780Z,28.87
2019-02-06T07:52:15.328Z,28.27
2019-02-06T07:54:22.707Z,25.63
2019-02-06T07:56:30.245Z,23.07
2019-02-06T07:58:37.498Z,21.97
2019-02-06T08:00:44.908Z,19.60
2019-02-06T08:02:52.579Z,19.60
2019-02-06T08:05:06.391Z,19.97
2019-02-06T08:07:13.806Z,20.43
2019-02-06T08:09:21.165Z,22.37
2019-02-06T08:11:28.592Z,37.47
2019-02-06T08:13:35.876Z,22.43
2019-02-06T08:15:43.418Z,19.37
2019-02-06T08:17:50.909Z,22.63
2019-02-06T08:19:58.277Z,19.40
2019-02-06T08:22:05.807Z,19.13
2019-02-06T08:24:13.361Z,19.20
2019-02-06T08:26:20.769Z,20.43
2019-02-06T08:28:28.205Z,19.63
2019-02-06T08:30:41.320Z,19.47
2019-02-06T08:32:48.586Z,20.30
2019-02-06T08:34:56.100Z,20.17
2019-02-06T08:37:03.648Z,20.17
2019-02-06T08:39:11.486Z,20.13
2019-02-06T08:41:18.940Z,18.80
2019-02-06T08:43:26.395Z,17.50
2019-02-06T08:45:34.091Z,18.93
2019-02-06T08:47:41.801Z,19.60
2019-02-06T08:49:49.334Z,18.03
2019-02-06T08:51:56.809Z,18.80
2019-02-06T08:54:04.278Z,19.63
2019-02-06T08:56:11.835Z,18.17
2019-02-06T08:58:19.330Z,22.23
2019-02-06T09:00:29.855Z,21.03
2019-02-06T09:02:37.505Z,32.93
2019-02-06T09:04:55.563Z,27.73
2019-02-06T09:06:54.718Z,26.40
2019-02-06T09:09:02.564Z,33.27
2019-02-06T09:11:10.980Z,33.03
2019-02-06T09:13:18.590Z,30.40
2019-02-06T09:15:27.330Z,26.70
2019-02-06T09:17:34.970Z,30.43
2019-02-06T09:19:42.558Z,28.90
2019-02-06T09:21:50.154Z,27.63
2019-02-06T09:23:57.850Z,23.40
2019-02-06T09:26:05.416Z,27.87
2019-02-06T09:28:12.859Z,21.20
2019-02-06T09:30:23.402Z,21.30
2019-02-06T09:32:30.900Z,22.37
2019-02-06T09:34:38.525Z,21.73
2019-02-06T09:36:46.028Z,20.27
2019-02-06T09:38:53.680Z,19.13
2019-02-06T09:41:01.173Z,20.07
2019-02-06T09:43:08.891Z,21.33
2019-02-06T09:45:16.325Z,22.23
2019-02-06T09:47:23.655Z,18.70
2019-02-06T09:49:31.135Z,18.13
2019-02-06T09:51:38.657Z,21.13
2019-02-06T09:53:46.235Z,20.20
2019-02-06T09:55:53.688Z,18.37
2019-02-06T09:58:01.178Z,19.10
2019-02-06T10:00:13.294Z,18.03
2019-02-06T10:02:20.786Z,18.93
2019-02-06T10:04:28.216Z,19.73
2019-02-06T10:06:35.803Z,20.73
2019-02-06T10:08:43.285Z,19.43
2019-02-06T10:10:50.653Z,18.93
2019-02-06T10:12:58.047Z,18.33
2019-02-06T10:15:05.661Z,19.83
2019-02-06T10:17:13.129Z,23.40
2019-02-06T10:19:20.473Z,24.00
2019-02-06T10:21:27.845Z,25.17
2019-02-06T10:23:35.342Z,24.20
2019-02-06T10:25:43.459Z,23.03
2019-02-06T10:27:51.066Z,21.83
2019-02-06T10:29:58.728Z,22.27
2019-02-06T10:32:07.436Z,22.47
2019-02-06T10:34:15.026Z,20.30
2019-02-06T10:36:22.450Z,22.17
2019-02-06T10:38:29.913Z,21.63
2019-02-06T10:40:37.288Z,27.60
2019-02-06T10:42:44.866Z,22.20
2019-02-06T10:44:52.311Z,20.97
2019-02-06T10:46:59.731Z,19.60
2019-02-06T10:49:07.820Z,28.63
2019-02-06T10:51:15.870Z,21.87
2019-02-06T10:53:25.026Z,20.17
2019-02-06T10:55:32.514Z,24.50
2019-02-06T10:57:40.334Z,20.77
2019-02-06T10:59:47.902Z,22.80
2019-02-06T11:01:55.535Z,21.73
2019-02-06T11:04:03.012Z,26.20
2019-02-06T11:06:10.705Z,22.67
2019-02-06T11:08:18.524Z,27.30
2019-02-06T11:10:26.351Z,27.43
2019-02-06T11:12:34.385Z,24.30
2019-02-06T11:14:42.010Z,23.50
2019-02-06T11:16:49.553Z,23.67
2019-02-06T11:18:57.329Z,21.07
2019-02-06T11:21:04.696Z,23.97
2019-02-06T11:23:12.285Z,22.97
2019-02-06T11:25:20.080Z,26.27
2019-02-06T11:27:27.706Z,25.67
2019-02-06T11:29:35.219Z,26.97
2019-02-06T11:31:42.821Z,28.57
2019-02-06T11:33:50.466Z,26.40
2019-02-06T11:35:58.090Z,25.57
2019-02-06T11:38:05.667Z,25.63
2019-02-06T11:40:18.644Z,36.70
2019-02-06T11:42:26.239Z,33.97
2019-02-06T11:44:33.990Z,27.57
2019-02-06T11:46:41.574Z,24.80
2019-02-06T11:48:49.087Z,22.03
2019-02-06T11:50:57.360Z,22.00
2019-02-06T11:53:05.018Z,24.47
2019-02-06T11:55:16.625Z,23.27
2019-02-06T11:57:24.427Z,26.80
2019-02-06T11:59:32.024Z,23.93
2019-02-06T12:01:46.409Z,34.43
2019-02-06T12:03:54.278Z,30.87
2019-02-06T12:06:01.562Z,19.93
2019-02-06T12:08:12.414Z,26.53
2019-02-06T12:10:19.126Z,21.47
2019-02-06T12:12:26.604Z,22.27
2019-02-06T12:14:34.200Z,21.80
2019-02-06T12:16:41.974Z,21.43
2019-02-06T12:18:49.472Z,18.63
2019-02-06T12:20:57.131Z,19.77
2019-02-06T12:23:05.595Z,19.53
2019-02-06T12:25:15.342Z,19.13
2019-02-06T12:27:23.265Z,20.73
2019-02-06T12:29:31.304Z,20.97
2019-02-06T12:31:39.050Z,19.03
2019-02-06T12:33:46.677Z,20.77
2019-02-06T12:35:54.087Z,25.30
2019-02-06T12:38:01.535Z,24.97
2019-02-06T12:40:20.747Z,21.83
2019-02-06T12:42:18.265Z,23.73
2019-02-06T12:44:25.291Z,20.10
2019-02-06T12:46:32.562Z,19.07
2019-02-06T12:48:40.161Z,20.80
2019-02-06T12:50:47.306Z,21.93
2019-02-06T12:52:57.225Z,20.10
2019-02-06T12:55:03.349Z,20.90
2019-02-06T12:57:10.396Z,19.60
2019-02-06T12:59:17.620Z,19.37
2019-02-06T13:01:24.840Z,22.97
2019-02-06T13:03:31.979Z,20.03
2019-02-06T13:05:39.085Z,26.73
2019-02-06T13:07:46.144Z,24.93
2019-02-06T13:09:53.196Z,22.27
2019-02-06T13:12:00.398Z,20.73
2019-02-06T13:14:07.663Z,25.93
2019-02-06T13:16:14.804Z,33.23
2019-02-06T13:18:24.140Z,31.10
2019-02-06T13:20:31.444Z,33.30
2019-02-06T13:22:38.469Z,38.53
2019-02-06T13:24:45.932Z,32.13
2019-02-06T13:26:53.047Z,41.13
2019-02-06T13:29:00.667Z,42.40
2019-02-06T13:31:07.718Z,41.87
2019-02-06T13:33:14.832Z,38.00
2019-02-06T13:35:21.895Z,35.50
2019-02-06T13:37:28.977Z,43.00
2019-02-06T13:39:36.070Z,43.90
2019-02-06T13:41:43.367Z,32.90
2019-02-06T13:43:50.568Z,37.40
2019-02-06T13:45:57.744Z,24.50
2019-02-06T13:48:05.342Z,23.07
2019-02-06T13:50:21.526Z,30.80
2019-02-06T13:52:22.189Z,25.10
2019-02-06T13:54:29.327Z,23.70
2019-02-06T13:56:37.136Z,29.37
2019-02-06T13:58:44.663Z,26.87
2019-02-06T14:00:52.599Z,24.47
2019-02-06T14:02:59.936Z,24.57
2019-02-06T14:05:07.212Z,22.83
2019-02-06T14:07:14.316Z,23.27
2019-02-06T14:09:24.251Z,23.37
2019-02-06T14:11:30.208Z,24.10
2019-02-06T14:13:37.388Z,39.17
2019-02-06T14:15:47.038Z,38.33
2019-02-06T14:17:54.463Z,30.77
2019-02-06T14:20:01.917Z,38.70
2019-02-06T14:22:09.990Z,33.07
2019-02-06T14:24:55.503Z,35.73
2019-02-06T14:27:59.666Z,35.70
2019-02-06T14:31:02.846Z,22.63
2019-02-06T14:34:21.520Z,24.93
2019-02-06T14:37:45.814Z,24.33
2019-02-06T14:40:53.659Z,21.30
2019-02-06T14:43:39.074Z,20.27
2019-02-06T14:46:47.907Z,22.90
2019-02-06T14:49:34.916Z,24.97
2019-02-06T14:52:23.418Z,22.67
2019-02-06T14:55:24.700Z,19.97
2019-02-06T14:58:22.519Z,22.03
2019-02-06T15:00:59.910Z,31.37
2019-02-06T15:03:58.642Z,28.03
2019-02-06T15:07:05.892Z,23.13
2019-02-06T15:10:20.447Z,22.57
2019-02-06T15:13:22.637Z,21.30
2019-02-06T15:16:09.783Z,27.83
2019-02-06T15:19:15.013Z,22.27
2019-02-06T15:22:17.557Z,27.17
2019-02-06T15:25:08.515Z,28.23
2019-02-06T15:28:06.666Z,27.43
2019-02-06T15:31:22.655Z,30.07
2019-02-06T15:34:15.521Z,34.23
2019-02-06T15:36:50.615Z,36.43
2019-02-06T15:39:51.614Z,32.87
2019-02-06T15:42:57.580Z,35.40
2019-02-06T15:45:37.884Z,44.83
2019-02-06T15:48:30.023Z,39.30
2019-02-06T15:51:38.383Z,55.33
2019-02-06T15:54:21.176Z,65.53
2019-02-06T15:57:26.677Z,53.20
2019-02-06T16:00:24.393Z,58.10
2019-02-06T16:03:56.158Z,44.70
2019-02-06T16:06:53.242Z,45.30
2019-02-06T16:09:45.814Z,41.87
2019-02-06T16:13:08.604Z,47.53
2019-02-06T16:16:44.260Z,51.53
2019-02-06T16:19:23.774Z,49.50
2019-02-06T16:22:07.317Z,45.03
2019-02-06T16:25:09.966Z,43.47
2019-02-06T16:28:00.204Z,42.23
2019-02-06T16:31:12.619Z,45.83
2019-02-06T16:34:06.473Z,42.63
2019-02-06T16:40:37.580Z,47.27
2019-02-06T16:43:35.460Z,46.07
2019-02-06T16:46:49.681Z,45.83
2019-02-06T16:49:28.020Z,42.07
2019-02-06T16:52:19.816Z,44.87
2019-02-06T16:55:30.927Z,46.23
2019-02-06T16:58:20.822Z,44.63
2019-02-06T17:01:21.922Z,40.63
2019-02-06T17:04:04.922Z,39.80
2019-02-06T17:06:45.616Z,41.70
2019-02-06T17:10:05.007Z,37.57
2019-02-06T17:12:59.326Z,36.07
2019-02-06T17:16:11.980Z,36.37
2019-02-06T17:19:17.013Z,35.93
2019-02-06T17:22:08.311Z,37.77
2019-02-06T17:25:10.264Z,38.80
2019-02-06T17:28:27.993Z,39.43
2019-02-06T17:31:42.589Z,38.40
2019-02-06T17:34:48.624Z,36.77
2019-02-06T17:37:56.649Z,35.60
2019-02-06T17:41:18.643Z,39.13
2019-02-06T17:44:17.176Z,43.07
2019-02-06T17:46:51.394Z,43.87
2019-02-06T17:49:49.659Z,65.80
2019-02-06T17:52:44.527Z,83.13
2019-02-06T17:55:38.985Z,69.87
2019-02-06T17:57:47.083Z,69.73
2019-02-06T17:59:54.628Z,65.93
2019-02-06T18:02:02.539Z,68.03
2019-02-06T18:04:49.401Z,62.20
2019-02-06T18:06:57.334Z,61.17
2019-02-06T18:09:08.399Z,62.13
2019-02-06T18:11:16.098Z,73.80
2019-02-06T18:13:24.149Z,81.70
2019-02-06T18:15:31.671Z,76.27
2019-02-06T18:17:39.331Z,79.30
2019-02-06T18:19:47.163Z,89.57
2019-02-06T18:21:54.749Z,93.67
2019-02-06T18:24:02.279Z,91.33
2019-02-06T18:26:10.224Z,104.13
2019-02-06T18:28:18.520Z,96.87
2019-02-06T18:30:27.410Z,93.90
2019-02-06T18:32:34.884Z,91.73
2019-02-06T18:34:42.621Z,94.47
2019-02-06T18:36:50.135Z,91.30
2019-02-06T18:38:58.127Z,83.73
2019-02-06T18:41:06.156Z,58.47
2019-02-06T18:43:13.708Z,58.67
2019-02-06T18:45:22.748Z,63.87
2019-02-06T18:47:30.484Z,52.30
2019-02-06T18:49:37.838Z,48.33
2019-02-06T18:51:45.849Z,42.90
2019-02-06T18:53:53.562Z,40.70
2019-02-06T18:56:01.080Z,48.87
2019-02-06T18:58:09.308Z,46.87
2019-02-06T19:00:24.478Z,44.73
2019-02-06T19:02:32.195Z,42.33
2019-02-06T19:04:40.720Z,46.73
2019-02-06T19:06:48.521Z,41.17
2019-02-06T19:08:58.093Z,43.33
2019-02-06T19:11:05.955Z,44.13
2019-02-06T19:13:14.356Z,42.57
2019-02-06T19:15:22.317Z,41.67
2019-02-06T19:17:30.959Z,44.70
2019-02-06T19:19:39.137Z,45.60
2019-02-06T19:21:46.722Z,46.53
2019-02-06T19:23:54.314Z,45.17
2019-02-06T19:26:01.986Z,43.70
2019-02-06T19:28:09.505Z,43.03
2019-02-06T19:30:26.020Z,42.43
2019-02-06T19:32:34.013Z,44.40
2019-02-06T19:34:41.687Z,41.03
2019-02-06T19:36:49.242Z,42.50
2019-02-06T19:38:56.762Z,41.90
2019-02-06T19:41:04.466Z,40.93
2019-02-06T19:43:11.964Z,41.97
2019-02-06T19:45:20.060Z,56.17
2019-02-06T19:47:30.560Z,50.80
2019-02-06T19:49:37.765Z,41.53
2019-02-06T19:51:45.730Z,37.47
2019-02-06T19:53:53.246Z,32.97
2019-02-06T19:56:00.948Z,33.43
2019-02-06T19:58:09.385Z,33.43
2019-02-06T20:00:21.317Z,31.97
2019-02-06T20:02:29.247Z,33.93
2019-02-06T20:04:37.232Z,35.20
2019-02-06T20:06:44.979Z,34.43
2019-02-06T20:08:52.697Z,34.97
2019-02-06T20:11:01.254Z,33.90
2019-02-06T20:13:11.441Z,34.87
2019-02-06T20:15:18.327Z,36.20
2019-02-06T20:17:26.190Z,37.73
2019-02-06T20:19:33.920Z,38.77
2019-02-06T20:21:41.462Z,40.17
2019-02-06T20:23:48.838Z,38.93
2019-02-06T20:25:56.916Z,40.73
2019-02-06T20:28:04.821Z,39.67
2019-02-06T20:30:17.294Z,42.37
2019-02-06T20:32:24.945Z,53.87
2019-02-06T20:34:32.834Z,56.07
2019-02-06T20:36:40.549Z,58.27
2019-02-06T20:38:48.841Z,58.43
2019-02-06T20:40:58.407Z,63.63
2019-02-06T20:43:06.295Z,64.53
2019-02-06T20:45:14.124Z,65.07
2019-02-06T20:47:22.064Z,60.80
2019-02-06T20:49:29.731Z,51.17
2019-02-06T20:51:37.439Z,47.97
2019-02-06T20:53:45.212Z,48.23
2019-02-06T20:55:52.867Z,55.20
2019-02-06T20:58:00.613Z,51.50
2019-02-06T21:00:12.751Z,46.60
2019-02-06T21:02:20.440Z,42.37
2019-02-06T21:04:28.333Z,39.27
2019-02-06T21:06:35.766Z,39.23
2019-02-06T21:08:43.386Z,40.40
2019-02-06T21:10:51.376Z,38.10
2019-02-06T21:12:59.274Z,44.40
2019-02-06T21:15:06.913Z,43.03
2019-02-06T21:17:14.566Z,46.13
2019-02-06T21:19:22.638Z,42.73
2019-02-06T21:21:30.419Z,41.70
2019-02-06T21:23:37.940Z,40.20
2019-02-06T21:25:46.962Z,40.43
2019-02-06T21:27:54.549Z,40.33
2019-02-06T21:30:02.187Z,38.60
2019-02-06T21:32:09.691Z,40.00
2019-02-06T21:34:17.266Z,38.33
2019-02-06T21:36:24.667Z,39.23
2019-02-06T21:38:32.313Z,37.10
2019-02-06T21:40:39.850Z,42.40
2019-02-06T21:42:47.946Z,48.23
2019-02-06T21:44:55.913Z,48.73
2019-02-06T21:47:04.022Z,52.53
2019-02-06T21:49:11.811Z,55.80
2019-02-06T21:51:19.451Z,57.60
2019-02-06T21:53:26.848Z,67.07
2019-02-06T21:55:34.608Z,64.87
2019-02-06T21:57:43.824Z,65.60
2019-02-06T21:59:51.359Z,67.83
2019-02-06T22:01:59.108Z,65.37
2019-02-06T22:04:07.094Z,63.73
2019-02-06T22:06:14.911Z,56.87
2019-02-06T22:08:24.890Z,52.50
2019-02-06T22:10:32.548Z,56.13
2019-02-06T22:12:40.107Z,54.90
2019-02-06T22:14:47.868Z,53.80
2019-02-06T22:16:55.326Z,49.90
2019-02-06T22:19:03.195Z,54.17
2019-02-06T22:21:11.061Z,50.50
2019-02-06T22:23:19.032Z,50.83
2019-02-06T22:25:27.199Z,49.67
2019-02-06T22:27:35.334Z,48.77
2019-02-06T22:29:43.380Z,52.10
2019-02-06T22:31:51.099Z,49.53
2019-02-06T22:33:59.224Z,50.23
2019-02-06T22:36:07.064Z,53.97
2019-02-06T22:38:14.823Z,53.77
2019-02-06T22:40:24.492Z,53.97
2019-02-06T22:42:32.561Z,58.97
2019-02-06T22:44:41.136Z,60.27
2019-02-06T22:46:48.978Z,61.43
2019-02-06T22:48:56.967Z,59.37
2019-02-06T22:51:04.796Z,57.70
2019-02-06T22:53:12.707Z,56.33
2019-02-06T22:55:20.625Z,52.27
2019-02-06T22:57:28.632Z,54.60
2019-02-06T22:59:36.252Z,52.47
2019-02-06T23:02:02.177Z,53.53
2019-02-06T23:04:09.885Z,49.57
2019-02-06T23:06:17.649Z,48.70
2019-02-06T23:08:25.481Z,48.67
2019-02-06T23:10:33.128Z,46.93
2019-02-06T23:12:40.815Z,47.53
2019-02-06T23:14:48.459Z,47.97
2019-02-06T23:16:56.328Z,46.07
2019-02-06T23:19:04.176Z,45.83
2019-02-06T23:21:11.970Z,48.77
2019-02-06T23:23:19.798Z,46.87
2019-02-06T23:25:27.406Z,46.53
2019-02-06T23:27:35.143Z,47.30
2019-02-06T23:29:43.045Z,48.20
2019-02-06T23:31:50.981Z,46.10
2019-02-06T23:33:59.024Z,46.10
2019-02-06T23:36:07.212Z,42.23
2019-02-06T23:38:14.949Z,44.67
2019-02-06T23:40:22.918Z,44.13
2019-02-06T23:42:30.803Z,42.80
2019-02-06T23:44:38.533Z,43.03
2019-02-06T23:46:46.031Z,45.43
2019-02-06T23:48:53.651Z,44.17
2019-02-06T23:51:01.490Z,42.80
2019-02-06T23:53:09.153Z,43.97
2019-02-06T23:55:16.819Z,39.93
2019-02-06T23:57:24.380Z,40.33
2019-02-06T23:59:32.087Z,39.93
